Waverly, IA

2:23 AM CDT on July 23, 2014 (GMT -0500)
Wartburg College Observatory (KIAWAVER1) Elev 928 ft | 42.73 °N, 92.49 °W | Change Station

Current weather conditions updated 0 second ago

Overcast
Overcast
65.8 °F
Feels Like 65.8 °F
N
3.5
Wind Variable Wind from WNW
Gusts 3.5 mph

Today is forecast to be Much Cooler than yesterday.

Today
High -- | Low -- °F
--% Chance of Precip.
Yesterday
High -- | Low -- °F
Precip. -- in
5:52 AM 8:39 PM
Waning Crescent, 12% visible
Pressure 30.11 in
Visibility 10.0 miles
Clouds Clear
Dew Point 63 °F
Humidity 90%
Rainfall 0.00 in
Snow Depth Not available.
UV 0.0 out of 12
Pollen 6.20 out of 12
Air Quality Not available.
Flu Activity Not available.
METAR KALO 230654Z 31005KT 10SM CLR 19/17 A3012 RMK AO2 SLP194 T01890172

More Conditions Fewer Conditions

Pressure 30.11 in
Visibility 10.0 miles
Clouds Clear
Dew Point 63 °F
Humidity 90%
Rainfall 0.00 in
Snow Depth Not available.
UV 0.0 out of 12
Pollen 6.20 out of 12
Air Quality Not available.
Flu Activity Not available.
METAR KALO 230654Z 31005KT 10SM CLR 19/17 A3012 RMK AO2 SLP194 T01890172

More Conditions Fewer Conditions

10-Day Weather Forecast

Almanac

Astronomy

Jul. 23, 2014 Rise Set
Actual Time 5:52 AM CDT 8:39 PM CDT
Civil Twilight 5:19 AM CDT 9:12 PM CDT
Nautical Twilight 4:37 AM CDT 9:54 PM CDT
Astronomical Twilight 3:49 AM CDT 10:42 PM CDT
Moon 3:12 AM CDT 6:08 PM CDT
Length of Visible Light 15h 53m
Length of Day
14h 47m
Tomorrow will be 1m 54s shorter.
Waning Crescent, 12% of the Moon is Illuminated
Today
Waning Crescent
Jul 26
New
Aug 3
First Quarter
Aug 10
Full
Aug 17
Last Quarter

Today's Extremes

State Highs State Lows

Community

WunderPhotos

Upload Photos

1,736,527 photos uploaded!

Nearby

Snow Depth

Station Depth Elevation
No new snow has been reported.

Earthquake Activity

City Distance Mag. Time & Date
No recent earthquake activity has been reported nearby.
Minimum magnitude displayed is 2.5.

Coastal Water Temperatures

Place Temperature
No Stations Reporting

Nearby Weather Stations

Station Location Temp. Dew Point Humidity Wind Precip. Elev Updated Type
Wartburg College Observatory, Waverly, IA 65.8 °F 63 °F 90% WNW  at  3.5 mph 0.00 in / hr 928 ft 2:23 AM CDT Rapid Fire
Laurel Circle, Cedar Falls, IA 67.3 °F 66 °F 95% WSW  at  0.2 mph 0.00 in / hr 942 ft 2:23 AM CDT Rapid Fire
Micah's House, Cedar Falls, IA 68.8 °F 64 °F 85% NW  at  0.0 mph 0.00 in / hr 924 ft 2:22 AM CDT Normal
Waterloo, IowaGenerators.com, Waterloo, IA 68.9 °F 65 °F 88% NW  at  1.0 mph 0.00 in / hr 886 ft 2:23 AM CDT Rapid Fire
Columbus Dr - Waterloo, Waterloo, IA 69.1 °F 64 °F 84% NNE  at  0.0 mph 0.00 in / hr 910 ft 2:23 AM CDT Rapid Fire
Radio Station N0VTZ; 5 Mi. North of, Sumner, IA 63.0 °F -40 °F - North  at  0.0 mph 0.00 in / hr 1145 ft 2:23 AM CDT Rapid Fire
Lanehaven Farms, Inc., Waterloo, IA 67.6 °F 64 °F 88% NNW  at  3.0 mph 0.00 in / hr 950 ft 2:14 AM CDT Normal

Show More Stations Show Fewer Stations